Dreyer, Texas
Current Conditions -  °F | °C
As of 8:15 PM on Thursday 18 Dec 2014 (Local Time) from KT20 Reporting Station
Thunderstorm Thunderstorm  
Wind Chill: 60°   Ceiling: 800
Heat Index: 60°   Visibility: 7mi
Dew Point: 57°   Wind: 7mph
Humidity: 92%   Direction: 40°NE
Pressure: 30.04"   Gusts: 17mph
Location:  29.4258°N, 97.1461°W
Report Text: KT20 190215Z AUTO 04006G15KT 7SM -VCTSRA OVC008 15/14 A3004 RMK AO2 LTG DSNT SE T01530140
Loading
Personal Weather Stations






























Interactive Weather Map New forecast layout! Learn more

10-Day Weather Forecast

Advertisements
Track Severe Weather on mobile